sensor_id;sensor_type;location;lat;lon;timestamp;pressure;altitude;pressure_sealevel;temperature;humidity
46614;BME280;32338;50.430;6.806;2022-12-13T00:02:20;64454.72;;;-8.98;100.00
46614;BME280;32338;50.430;6.806;2022-12-13T00:04:46;64453.06;;;-8.99;100.00
46614;BME280;32338;50.430;6.806;2022-12-13T00:07:13;64461.03;;;-8.89;100.00
46614;BME280;32338;50.430;6.806;2022-12-13T00:09:41;64462.81;;;-8.92;100.00
46614;BME280;32338;50.430;6.806;2022-12-13T00:12:08;64466.34;;;-8.87;100.00
46614;BME280;32338;50.430;6.806;2022-12-13T00:14:34;64478.28;;;-8.78;100.00
46614;BME280;32338;50.430;6.806;2022-12-13T00:17:01;64470.78;;;-8.83;100.00
46614;BME280;32338;50.430;6.806;2022-12-13T00:19:28;64478.63;;;-8.80;100.00
46614;BME280;32338;50.430;6.806;2022-12-13T00:21:54;64471.78;;;-8.77;100.00
46614;BME280;32338;50.430;6.806;2022-12-13T00:24:21;64489.34;;;-8.68;100.00
46614;BME280;32338;50.430;6.806;2022-12-13T00:26:49;64483.72;;;-8.68;100.00
46614;BME280;32338;50.430;6.806;2022-12-13T00:29:16;64477.09;;;-8.74;100.00
46614;BME280;32338;50.430;6.806;2022-12-13T00:31:42;64481.84;;;-8.72;100.00
46614;BME280;32338;50.430;6.806;2022-12-13T00:34:09;64477.97;;;-8.76;100.00
46614;BME280;32338;50.430;6.806;2022-12-13T00:36:36;64486.59;;;-8.70;100.00
46614;BME280;32338;50.430;6.806;2022-12-13T00:39:02;64490.69;;;-8.64;100.00
46614;BME280;32338;50.430;6.806;2022-12-13T00:41:31;64498.75;;;-8.59;100.00
46614;BME280;32338;50.430;6.806;2022-12-13T00:44:01;64482.94;;;-8.71;100.00
46614;BME280;32338;50.430;6.806;2022-12-13T00:46:29;64474.63;;;-8.79;100.00
46614;BME280;32338;50.430;6.806;2022-12-13T00:48:57;64462.16;;;-8.88;100.00
46614;BME280;32338;50.430;6.806;2022-12-13T00:51:26;64470.78;;;-8.83;100.00
46614;BME280;32338;50.430;6.806;2022-12-13T00:53:53;64477.19;;;-8.79;100.00
46614;BME280;32338;50.430;6.806;2022-12-13T00:56:22;64481.28;;;-8.73;100.00
46614;BME280;32338;50.430;6.806;2022-12-13T00:58:50;64483.28;;;-8.73;100.00
46614;BME280;32338;50.430;6.806;2022-12-13T01:01:22;64480.75;;;-8.73;100.00
46614;BME280;32338;50.430;6.806;2022-12-13T01:03:50;64477.41;;;-8.76;100.00
46614;BME280;32338;50.430;6.806;2022-12-13T01:06:20;64476.88;;;-8.77;100.00
46614;BME280;32338;50.430;6.806;2022-12-13T01:08:47;64479.41;;;-8.77;100.00
46614;BME280;32338;50.430;6.806;2022-12-13T01:11:14;64466.66;;;-8.89;100.00
46614;BME280;32338;50.430;6.806;2022-12-13T01:13:41;64456.41;;;-8.96;100.00
46614;BME280;32338;50.430;6.806;2022-12-13T01:16:09;64457.38;;;-9.02;100.00
46614;BME280;32338;50.430;6.806;2022-12-13T01:18:38;64460.50;;;-8.90;100.00
46614;BME280;32338;50.430;6.806;2022-12-13T01:21:07;64462.69;;;-8.88;100.00
46614;BME280;32338;50.430;6.806;2022-12-13T01:23:33;64474.97;;;-8.81;100.00
46614;BME280;32338;50.430;6.806;2022-12-13T01:26:01;64474.41;;;-8.82;100.00
46614;BME280;32338;50.430;6.806;2022-12-13T01:28:28;64471.00;;;-8.80;100.00
46614;BME280;32338;50.430;6.806;2022-12-13T01:30:55;64480.41;;;-8.71;100.00
46614;BME280;32338;50.430;6.806;2022-12-13T01:33:22;64474.63;;;-8.79;100.00
46614;BME280;32338;50.430;6.806;2022-12-13T01:35:51;64473.53;;;-8.80;100.00
46614;BME280;32338;50.430;6.806;2022-12-13T01:38:18;64475.97;;;-8.75;100.00
46614;BME280;32338;50.430;6.806;2022-12-13T01:40:46;64471.25;;;-8.77;100.00
46614;BME280;32338;50.430;6.806;2022-12-13T01:43:13;64471.56;;;-8.80;100.00
46614;BME280;32338;50.430;6.806;2022-12-13T01:45:41;64472.44;;;-8.81;100.00
46614;BME280;32338;50.430;6.806;2022-12-13T01:48:12;64469.34;;;-8.82;100.00
46614;BME280;32338;50.430;6.806;2022-12-13T01:50:42;64472.53;;;-8.86;100.00
46614;BME280;32338;50.430;6.806;2022-12-13T01:53:16;64465.81;;;-8.87;100.00
46614;BME280;32338;50.430;6.806;2022-12-13T01:55:46;64461.03;;;-8.89;100.00
46614;BME280;32338;50.430;6.806;2022-12-13T01:58:15;64464.13;;;-8.89;100.00
46614;BME280;32338;50.430;6.806;2022-12-13T02:00:43;64469.34;;;-8.82;100.00
46614;BME280;32338;50.430;6.806;2022-12-13T02:03:11;64487.69;;;-8.69;100.00
46614;BME280;32338;50.430;6.806;2022-12-13T02:05:41;64484.94;;;-8.72;100.00
46614;BME280;32338;50.430;6.806;2022-12-13T02:08:10;64480.84;;;-8.78;100.00
46614;BME280;32338;50.430;6.806;2022-12-13T02:10:41;64468.34;;;-8.87;100.00
46614;BME280;32338;50.430;6.806;2022-12-13T02:13:08;64455.63;;;-8.99;100.00
46614;BME280;32338;50.430;6.806;2022-12-13T02:15:41;64444.78;;;-9.07;100.00
46614;BME280;32338;50.430;6.806;2022-12-13T02:18:22;64453.06;;;-8.99;100.00
46614;BME280;32338;50.430;6.806;2022-12-13T02:20:59;64444.25;;;-9.07;100.00
46614;BME280;32338;50.430;6.806;2022-12-13T02:26:39;64442.34;;;-9.12;100.00
46614;BME280;32338;50.430;6.806;2022-12-13T02:29:33;64437.59;;;-9.14;100.00
46614;BME280;32338;50.430;6.806;2022-12-13T02:32:11;64435.38;;;-9.16;100.00
46614;BME280;32338;50.430;6.806;2022-12-13T02:34:46;64422.91;;;-9.25;100.00
46614;BME280;32338;50.430;6.806;2022-12-13T02:37:21;64425.97;;;-9.24;100.00
46614;BME280;32338;50.430;6.806;2022-12-13T02:39:53;64424.34;;;-9.26;100.00
46614;BME280;32338;50.430;6.806;2022-12-13T02:42:26;64423.22;;;-9.27;100.00
46614;BME280;32338;50.430;6.806;2022-12-13T02:44:56;64433.81;;;-9.22;100.00
46614;BME280;32338;50.430;6.806;2022-12-13T02:47:29;64437.03;;;-9.14;100.00
46614;BME280;32338;50.430;6.806;2022-12-13T02:49:58;64428.75;;;-9.22;100.00
46614;BME280;32338;50.430;6.806;2022-12-13T02:52:28;64413.72;;;-9.31;100.00
46614;BME280;32338;50.430;6.806;2022-12-13T02:54:57;64425.09;;;-9.23;100.00
46614;BME280;32338;50.430;6.806;2022-12-13T02:57:28;64432.94;;;-9.20;100.00
46614;BME280;32338;50.430;6.806;2022-12-13T02:59:56;64422.03;;;-9.23;100.00
46614;BME280;32338;50.430;6.806;2022-12-13T03:02:30;64426.88;;;-9.26;100.00
46614;BME280;32338;50.430;6.806;2022-12-13T03:05:03;64413.03;;;-9.39;100.00
46614;BME280;32338;50.430;6.806;2022-12-13T03:07:57;64417.69;;;-9.32;100.00
46614;BME280;32338;50.430;6.806;2022-12-13T03:10:30;64405.84;;;-9.46;100.00
46614;BME280;32338;50.430;6.806;2022-12-13T03:13:01;64405.31;;;-9.46;100.00
46614;BME280;32338;50.430;6.806;2022-12-13T03:15:50;64399.44;;;-9.49;100.00
46614;BME280;32338;50.430;6.806;2022-12-13T03:18:21;64385.19;;;-9.67;100.00
46614;BME280;32338;50.430;6.806;2022-12-13T03:20:50;64377.88;;;-9.69;100.00
46614;BME280;32338;50.430;6.806;2022-12-13T03:23:18;64382.00;;;-9.63;100.00
46614;BME280;32338;50.430;6.806;2022-12-13T03:25:46;64378.22;;;-9.71;100.00
46614;BME280;32338;50.430;6.806;2022-12-13T03:28:15;64390.94;;;-9.59;100.00
46614;BME280;32338;50.430;6.806;2022-12-13T03:30:41;64384.84;;;-9.65;100.00
46614;BME280;32338;50.430;6.806;2022-12-13T03:33:08;64390.06;;;-9.58;100.00
46614;BME280;32338;50.430;6.806;2022-12-13T03:35:38;64393.38;;;-9.55;100.00
46614;BME280;32338;50.430;6.806;2022-12-13T03:38:05;64404.66;;;-9.42;100.00
46614;BME280;32338;50.430;6.806;2022-12-13T03:40:32;64407.97;;;-9.39;100.00
46614;BME280;32338;50.430;6.806;2022-12-13T03:42:59;64415.81;;;-9.36;100.00
46614;BME280;32338;50.430;6.806;2022-12-13T03:45:26;64413.03;;;-9.39;100.00
46614;BME280;32338;50.430;6.806;2022-12-13T03:47:53;64419.91;;;-9.30;100.00
46614;BME280;32338;50.430;6.806;2022-12-13T03:50:19;64418.56;;;-9.34;100.00
46614;BME280;32338;50.430;6.806;2022-12-13T03:52:48;64429.84;;;-9.21;100.00
46614;BME280;32338;50.430;6.806;2022-12-13T03:55:15;64437.16;;;-9.19;100.00
46614;BME280;32338;50.430;6.806;2022-12-13T03:57:42;64421.78;;;-9.26;100.00
46614;BME280;32338;50.430;6.806;2022-12-13T04:00:10;64420.56;;;-9.34;100.00
46614;BME280;32338;50.430;6.806;2022-12-13T04:02:37;64415.47;;;-9.34;100.00
46614;BME280;32338;50.430;6.806;2022-12-13T04:05:05;64409.63;;;-9.37;100.00
46614;BME280;32338;50.430;6.806;2022-12-13T04:07:31;64414.72;;;-9.37;100.00
46614;BME280;32338;50.430;6.806;2022-12-13T04:09:59;64406.88;;;-9.40;100.00
46614;BME280;32338;50.430;6.806;2022-12-13T04:12:26;64403.53;;;-9.43;100.00
46614;BME280;32338;50.430;6.806;2022-12-13T04:15:10;64397.25;;;-9.51;100.00
46614;BME280;32338;50.430;6.806;2022-12-13T04:17:37;64397.88;;;-9.55;100.00
46614;BME280;32338;50.430;6.806;2022-12-13T04:20:04;64386.53;;;-9.64;100.00
46614;BME280;32338;50.430;6.806;2022-12-13T04:22:31;64357.59;;;-9.81;100.00
46614;BME280;32338;50.430;6.806;2022-12-13T04:24:57;64369.38;;;-9.80;100.00
46614;BME280;32338;50.430;6.806;2022-12-13T04:27:26;64374.91;;;-9.74;100.00
46614;BME280;32338;50.430;6.806;2022-12-13T04:29:52;64376.25;;;-9.71;100.00
46614;BME280;32338;50.430;6.806;2022-12-13T04:32:19;64372.16;;;-9.77;100.00
46614;BME280;32338;50.430;6.806;2022-12-13T04:34:45;64378.69;;;-9.66;100.00
46614;BME280;32338;50.430;6.806;2022-12-13T04:37:12;64384.53;;;-9.63;100.00
46614;BME280;32338;50.430;6.806;2022-12-13T04:39:39;64380.66;;;-9.67;100.00
46614;BME280;32338;50.430;6.806;2022-12-13T04:42:06;64384.31;;;-9.66;100.00
46614;BME280;32338;50.430;6.806;2022-12-13T04:44:34;64385.31;;;-9.60;100.00
46614;BME280;32338;50.430;6.806;2022-12-13T04:47:00;64393.03;;;-9.53;100.00
46614;BME280;32338;50.430;6.806;2022-12-13T04:49:28;64385.63;;;-9.62;100.00
46614;BME280;32338;50.430;6.806;2022-12-13T04:51:54;64390.38;;;-9.60;100.00
46614;BME280;32338;50.430;6.806;2022-12-13T04:54:22;64379.31;;;-9.70;100.00
46614;BME280;32338;50.430;6.806;2022-12-13T04:56:48;64372.38;;;-9.74;100.00
46614;BME280;32338;50.430;6.806;2022-12-13T04:59:15;64375.22;;;-9.77;100.00
46614;BME280;32338;50.430;6.806;2022-12-13T05:01:44;64370.94;;;-9.73;100.00
46614;BME280;32338;50.430;6.806;2022-12-13T05:04:10;64367.72;;;-9.81;100.00
46614;BME280;32338;50.430;6.806;2022-12-13T05:06:37;64371.81;;;-9.75;100.00
46614;BME280;32338;50.430;6.806;2022-12-13T05:09:04;64371.59;;;-9.78;100.00
46614;BME280;32338;50.430;6.806;2022-12-13T05:11:32;64361.56;;;-9.82;100.00
46614;BME280;32338;50.430;6.806;2022-12-13T05:13:59;64366.84;;;-9.80;100.00
46614;BME280;32338;50.430;6.806;2022-12-13T05:16:25;64367.38;;;-9.79;100.00
46614;BME280;32338;50.430;6.806;2022-12-13T05:18:53;64374.34;;;-9.75;100.00
46614;BME280;32338;50.430;6.806;2022-12-13T05:21:20;64374.91;;;-9.74;100.00
46614;BME280;32338;50.430;6.806;2022-12-13T05:23:47;64372.06;;;-9.72;100.00
46614;BME280;32338;50.430;6.806;2022-12-13T05:26:13;64372.69;;;-9.77;100.00
46614;BME280;32338;50.430;6.806;2022-12-13T05:28:40;64381.22;;;-9.66;100.00
46614;BME280;32338;50.430;6.806;2022-12-13T05:31:09;64381.53;;;-9.68;100.00
46614;BME280;32338;50.430;6.806;2022-12-13T05:33:36;64376.25;;;-9.71;100.00
46614;BME280;32338;50.430;6.806;2022-12-13T05:36:05;64373.69;;;-9.71;100.00
46614;BME280;32338;50.430;6.806;2022-12-13T05:38:32;64377.88;;;-9.69;100.00
46614;BME280;32338;50.430;6.806;2022-12-13T05:40:58;64382.88;;;-9.65;100.00
46614;BME280;32338;50.430;6.806;2022-12-13T05:43:25;64382.31;;;-9.65;100.00
46614;BME280;32338;50.430;6.806;2022-12-13T05:45:52;64391.69;;;-9.56;100.00
46614;BME280;32338;50.430;6.806;2022-12-13T05:48:19;64412.50;;;-9.39;100.00
46614;BME280;32338;50.430;6.806;2022-12-13T05:50:45;64423.22;;;-9.27;100.00
46614;BME280;32338;50.430;6.806;2022-12-13T05:53:13;64423.22;;;-9.27;100.00
46614;BME280;32338;50.430;6.806;2022-12-13T05:55:41;64422.44;;;-9.30;100.00
46614;BME280;32338;50.430;6.806;2022-12-13T05:58:08;64417.13;;;-9.33;100.00
46614;BME280;32338;50.430;6.806;2022-12-13T06:00:37;64423.53;;;-9.29;100.00
46614;BME280;32338;50.430;6.806;2022-12-13T06:03:04;64418.81;;;-9.31;100.00
46614;BME280;32338;50.430;6.806;2022-12-13T06:05:30;64419.91;;;-9.30;100.00
46614;BME280;32338;50.430;6.806;2022-12-13T06:07:57;64421.00;;;-9.29;100.00
46614;BME280;32338;50.430;6.806;2022-12-13T06:10:27;64420.47;;;-9.30;100.00
46614;BME280;32338;50.430;6.806;2022-12-13T06:12:54;64424.88;;;-9.25;100.00
46614;BME280;32338;50.430;6.806;2022-12-13T06:15:20;64431.28;;;-9.22;100.00
46614;BME280;32338;50.430;6.806;2022-12-13T06:17:47;64436.25;;;-9.17;100.00
46614;BME280;32338;50.430;6.806;2022-12-13T06:20:14;64439.56;;;-9.14;100.00
46614;BME280;32338;50.430;6.806;2022-12-13T06:22:40;64435.06;;;-9.14;100.00
46614;BME280;32338;50.430;6.806;2022-12-13T06:25:07;64463.69;;;-8.94;100.00
46614;BME280;32338;50.430;6.806;2022-12-13T06:27:36;64467.22;;;-8.88;100.00
46614;BME280;32338;50.430;6.806;2022-12-13T06:30:03;64461.59;;;-8.89;100.00
46614;BME280;32338;50.430;6.806;2022-12-13T06:32:30;64493.22;;;-8.64;100.00
46614;BME280;32338;50.430;6.806;2022-12-13T06:34:56;64498.97;;;-8.56;100.00
46614;BME280;32338;50.430;6.806;2022-12-13T06:37:23;64508.59;;;-8.45;100.00
46614;BME280;32338;50.430;6.806;2022-12-13T06:39:49;64520.88;;;-8.38;100.00
46614;BME280;32338;50.430;6.806;2022-12-13T06:42:17;64518.88;;;-8.38;100.00
46614;BME280;32338;50.430;6.806;2022-12-13T06:44:45;64525.31;;;-8.34;100.00
46614;BME280;32338;50.430;6.806;2022-12-13T06:47:16;64522.75;;;-8.34;100.00
46614;BME280;32338;50.430;6.806;2022-12-13T06:49:42;64518.00;;;-8.36;100.00
46614;BME280;32338;50.430;6.806;2022-12-13T06:52:09;64523.66;;;-8.36;100.00
46614;BME280;32338;50.430;6.806;2022-12-13T06:54:37;64515.22;;;-8.39;100.00
46614;BME280;32338;50.430;6.806;2022-12-13T06:57:04;64516.47;;;-8.42;100.00
46614;BME280;32338;50.430;6.806;2022-12-13T06:59:30;64511.69;;;-8.44;100.00
46614;BME280;32338;50.430;6.806;2022-12-13T07:01:58;64518.34;;;-8.38;100.00
46614;BME280;32338;50.430;6.806;2022-12-13T07:04:25;64523.88;;;-8.33;100.00
46614;BME280;32338;50.430;6.806;2022-12-13T07:06:52;64536.13;;;-8.26;100.00
46614;BME280;32338;50.430;6.806;2022-12-13T07:09:18;64529.41;;;-8.28;100.00
46614;BME280;32338;50.430;6.806;2022-12-13T07:11:45;64532.72;;;-8.25;100.00
46614;BME280;32338;50.430;6.806;2022-12-13T07:14:12;64542.47;;;-8.18;100.00
46614;BME280;32338;50.430;6.806;2022-12-13T07:16:38;64530.72;;;-8.24;100.00
46614;BME280;32338;50.430;6.806;2022-12-13T07:19:08;64527.66;;;-8.25;100.00
46614;BME280;32338;50.430;6.806;2022-12-13T07:21:35;64519.91;;;-8.32;100.00
46614;BME280;32338;50.430;6.806;2022-12-13T07:24:03;64523.31;;;-8.34;100.00
46614;BME280;32338;50.430;6.806;2022-12-13T07:26:30;64522.53;;;-8.37;100.00
46614;BME280;32338;50.430;6.806;2022-12-13T07:28:56;64509.69;;;-8.44;100.00
46614;BME280;32338;50.430;6.806;2022-12-13T07:31:24;64521.09;;;-8.36;100.00
46614;BME280;32338;50.430;6.806;2022-12-13T07:33:51;64514.69;;;-8.39;100.00
46614;BME280;32338;50.430;6.806;2022-12-13T07:36:21;64515.00;;;-8.41;100.00
46614;BME280;32338;50.430;6.806;2022-12-13T07:38:50;64508.38;;;-8.48;100.00
46614;BME280;32338;50.430;6.806;2022-12-13T07:41:16;64506.19;;;-8.50;100.00
46614;BME280;32338;50.430;6.806;2022-12-13T07:43:43;64494.56;;;-8.60;100.00
46614;BME280;32338;50.430;6.806;2022-12-13T07:46:10;64480.16;;;-8.74;100.00
46614;BME280;32338;50.430;6.806;2022-12-13T07:48:37;64470.78;;;-8.83;100.00
46614;BME280;32338;50.430;6.806;2022-12-13T07:51:06;64468.34;;;-8.87;100.00
46614;BME280;32338;50.430;6.806;2022-12-13T07:53:34;64471.88;;;-8.82;100.00
46614;BME280;32338;50.430;6.806;2022-12-13T07:56:01;64463.25;;;-8.87;100.00
46614;BME280;32338;50.430;6.806;2022-12-13T07:58:28;64464.69;;;-8.88;100.00
46614;BME280;32338;50.430;6.806;2022-12-13T08:00:58;64471.88;;;-8.82;100.00
46614;BME280;32338;50.430;6.806;2022-12-13T08:03:26;64461.03;;;-8.89;100.00
46614;BME280;32338;50.430;6.806;2022-12-13T08:06:00;64486.94;;;-8.72;100.00
46614;BME280;32338;50.430;6.806;2022-12-13T08:08:27;64488.47;;;-8.66;100.00
46614;BME280;32338;50.430;6.806;2022-12-13T08:10:59;64508.38;;;-8.48;100.00
46614;BME280;32338;50.430;6.806;2022-12-13T08:13:26;64521.31;;;-8.33;100.00
46614;BME280;32338;50.430;6.806;2022-12-13T08:15:56;64543.56;;;-8.17;100.00
46614;BME280;32338;50.430;6.806;2022-12-13T08:18:23;64551.88;;;-8.09;100.00
46614;BME280;32338;50.430;6.806;2022-12-13T08:20:50;64562.94;;;-7.99;100.00
46614;BME280;32338;50.430;6.806;2022-12-13T08:23:16;64570.59;;;-7.87;100.00
46614;BME280;32338;50.430;6.806;2022-12-13T08:25:49;64582.22;;;-7.76;100.00
46614;BME280;32338;50.430;6.806;2022-12-13T08:28:18;64599.25;;;-7.68;100.00
46614;BME280;32338;50.430;6.806;2022-12-13T08:30:50;64615.44;;;-7.45;100.00
46614;BME280;32338;50.430;6.806;2022-12-13T08:33:18;64612.66;;;-7.48;100.00
46614;BME280;32338;50.430;6.806;2022-12-13T08:35:47;64627.94;;;-7.36;100.00
46614;BME280;32338;50.430;6.806;2022-12-13T08:38:16;64643.03;;;-7.27;100.00
46614;BME280;32338;50.430;6.806;2022-12-13T08:40:43;64648.69;;;-7.14;100.00
46614;BME280;32338;50.430;6.806;2022-12-13T08:43:12;64645.69;;;-7.20;100.00
46614;BME280;32338;50.430;6.806;2022-12-13T08:45:43;64647.56;;;-7.15;100.00
46614;BME280;32338;50.430;6.806;2022-12-13T08:48:12;64659.88;;;-7.09;100.00
46614;BME280;32338;50.430;6.806;2022-12-13T08:50:45;64660.66;;;-7.06;100.00
46614;BME280;32338;50.430;6.806;2022-12-13T08:53:13;64674.06;;;-6.98;100.00
46614;BME280;32338;50.430;6.806;2022-12-13T08:55:43;64667.63;;;-7.02;100.00
46614;BME280;32338;50.430;6.806;2022-12-13T08:58:11;64674.50;;;-6.93;100.00
46614;BME280;32338;50.430;6.806;2022-12-13T09:00:41;64684.47;;;-6.84;100.00
46614;BME280;32338;50.430;6.806;2022-12-13T09:03:10;64690.03;;;-6.78;100.00
46614;BME280;32338;50.430;6.806;2022-12-13T09:05:37;64693.34;;;-6.75;100.00
46614;BME280;32338;50.430;6.806;2022-12-13T09:08:06;64708.41;;;-6.66;100.00
46614;BME280;32338;50.430;6.806;2022-12-13T09:10:36;64700.75;;;-6.66;100.00
46614;BME280;32338;50.430;6.806;2022-12-13T09:13:07;64711.19;;;-6.63;100.00
46614;BME280;32338;50.430;6.806;2022-12-13T09:15:37;64708.31;;;-6.61;100.00
46614;BME280;32338;50.430;6.806;2022-12-13T09:18:10;64708.19;;;-6.57;100.00
46614;BME280;32338;50.430;6.806;2022-12-13T09:20:37;64718.84;;;-6.52;100.00
46614;BME280;32338;50.430;6.806;2022-12-13T09:23:05;64726.84;;;-6.42;100.00
46614;BME280;32338;50.430;6.806;2022-12-13T09:25:32;64730.72;;;-6.38;100.00
46614;BME280;32338;50.430;6.806;2022-12-13T09:27:59;64737.16;;;-6.34;100.00
46614;BME280;32338;50.430;6.806;2022-12-13T09:30:27;64738.25;;;-6.33;100.00
46614;BME280;32338;50.430;6.806;2022-12-13T09:32:56;64744.56;;;-6.25;100.00
46614;BME280;32338;50.430;6.806;2022-12-13T09:35:27;64743.13;;;-6.24;100.00
46614;BME280;32338;50.430;6.806;2022-12-13T09:37:55;64752.34;;;-6.18;100.00
46614;BME280;32338;50.430;6.806;2022-12-13T09:40:26;64765.22;;;-6.11;100.00
46614;BME280;32338;50.430;6.806;2022-12-13T09:42:55;64755.44;;;-6.17;100.00
46614;BME280;32338;50.430;6.806;2022-12-13T09:45:23;64759.88;;;-6.13;100.00
46614;BME280;32338;50.430;6.806;2022-12-13T09:47:51;64767.84;;;-6.04;100.00
46614;BME280;32338;50.430;6.806;2022-12-13T09:50:27;64769.31;;;-6.05;100.00
46614;BME280;32338;50.430;6.806;2022-12-13T09:52:55;64778.72;;;-5.96;100.00
46614;BME280;32338;50.430;6.806;2022-12-13T09:55:24;64790.72;;;-5.87;100.00
46614;BME280;32338;50.430;6.806;2022-12-13T09:57:53;64788.47;;;-5.89;100.00
46614;BME280;32338;50.430;6.806;2022-12-13T10:00:22;64786.25;;;-5.91;100.00
46614;BME280;32338;50.430;6.806;2022-12-13T10:02:51;64788.47;;;-5.89;100.00
46614;BME280;32338;50.430;6.806;2022-12-13T10:05:27;64793.13;;;-5.82;100.00
46614;BME280;32338;50.430;6.806;2022-12-13T10:07:58;64807.03;;;-5.70;100.00
46614;BME280;32338;50.430;6.806;2022-12-13T10:10:26;64812.00;;;-5.65;100.00
46614;BME280;32338;50.430;6.806;2022-12-13T10:12:57;64834.66;;;-5.39;100.00
46614;BME280;32338;50.430;6.806;2022-12-13T10:15:30;64853.41;;;-5.29;100.00
46614;BME280;32338;50.430;6.806;2022-12-13T10:17:58;64841.19;;;-5.40;100.00
46614;BME280;32338;50.430;6.806;2022-12-13T10:20:29;64865.41;;;-5.20;100.00
46614;BME280;32338;50.430;6.806;2022-12-13T10:22:57;64863.28;;;-5.15;100.00
46614;BME280;32338;50.430;6.806;2022-12-13T10:25:46;64867.50;;;-5.13;100.00
46614;BME280;32338;50.430;6.806;2022-12-13T10:28:15;64871.59;;;-5.07;100.00
46614;BME280;32338;50.430;6.806;2022-12-13T10:30:43;64871.41;;;-5.10;100.00
46614;BME280;32338;50.430;6.806;2022-12-13T10:33:21;64882.72;;;-4.97;100.00
46614;BME280;32338;50.430;6.806;2022-12-13T10:36:12;64902.84;;;-4.83;100.00
46614;BME280;32338;50.430;6.806;2022-12-13T10:38:41;64903.59;;;-4.80;100.00
46614;BME280;32338;50.430;6.806;2022-12-13T10:41:32;64918.38;;;-4.68;100.00
46614;BME280;32338;50.430;6.806;2022-12-13T10:44:08;64925.63;;;-4.62;100.00
46614;BME280;32338;50.430;6.806;2022-12-13T10:46:35;64937.16;;;-4.46;100.00
46614;BME280;32338;50.430;6.806;2022-12-13T10:49:02;64953.06;;;-4.34;100.00
46614;BME280;32338;50.430;6.806;2022-12-13T10:51:36;64943.59;;;-4.43;100.00
46614;BME280;32338;50.430;6.806;2022-12-13T10:54:04;64939.72;;;-4.46;100.00
46614;BME280;32338;50.430;6.806;2022-12-13T10:56:34;64947.50;;;-4.39;100.00
46614;BME280;32338;50.430;6.806;2022-12-13T10:59:09;64967.84;;;-4.22;100.00
46614;BME280;32338;50.430;6.806;2022-12-13T11:01:36;64990.84;;;-3.99;100.00
46614;BME280;32338;50.430;6.806;2022-12-13T11:04:05;64988.97;;;-4.03;100.00
46614;BME280;32338;50.430;6.806;2022-12-13T11:06:42;65000.06;;;-3.93;100.00
46614;BME280;32338;50.430;6.806;2022-12-13T11:09:13;64997.94;;;-3.87;100.00
46614;BME280;32338;50.430;6.806;2022-12-13T11:11:41;65013.41;;;-3.80;100.00
46614;BME280;32338;50.430;6.806;2022-12-13T11:14:15;64995.28;;;-3.95;100.00
46614;BME280;32338;50.430;6.806;2022-12-13T11:16:48;65017.31;;;-3.77;100.00
46614;BME280;32338;50.430;6.806;2022-12-13T11:19:19;65043.09;;;-3.50;100.00
46614;BME280;32338;50.430;6.806;2022-12-13T11:21:49;65071.81;;;-3.26;100.00
46614;BME280;32338;50.430;6.806;2022-12-13T11:24:20;65094.28;;;-3.03;100.00
46614;BME280;32338;50.430;6.806;2022-12-13T11:26:52;65099.50;;;-2.96;100.00
46614;BME280;32338;50.430;6.806;2022-12-13T11:29:47;65096.63;;;-3.05;100.00
46614;BME280;32338;50.430;6.806;2022-12-13T11:32:24;65121.19;;;-2.75;100.00
46614;BME280;32338;50.430;6.806;2022-12-13T11:35:05;65108.53;;;-2.92;100.00
46614;BME280;32338;50.430;6.806;2022-12-13T11:37:44;65127.31;;;-2.70;100.00
46614;BME280;32338;50.430;6.806;2022-12-13T11:40:18;65147.91;;;-2.51;100.00
46614;BME280;32338;50.430;6.806;2022-12-13T11:42:49;65156.41;;;-2.48;100.00
46614;BME280;32338;50.430;6.806;2022-12-13T11:45:20;65154.16;;;-2.50;100.00
46614;BME280;32338;50.430;6.806;2022-12-13T11:47:50;65156.03;;;-2.46;100.00
46614;BME280;32338;50.430;6.806;2022-12-13T11:50:22;65160.84;;;-2.43;100.00
46614;BME280;32338;50.430;6.806;2022-12-13T11:52:55;65179.56;;;-2.29;100.00
46614;BME280;32338;50.430;6.806;2022-12-13T11:55:33;65177.22;;;-2.26;100.00
46614;BME280;32338;50.430;6.806;2022-12-13T11:58:05;65161.59;;;-2.40;100.00
46614;BME280;32338;50.430;6.806;2022-12-13T12:00:38;65176.53;;;-2.22;100.00
46614;BME280;32338;50.430;6.806;2022-12-13T12:03:15;65201.91;;;-2.01;100.00
46614;BME280;32338;50.430;6.806;2022-12-13T12:05:48;65197.59;;;-2.09;100.00
46614;BME280;32338;50.430;6.806;2022-12-13T12:08:19;65206.94;;;-1.96;100.00
46614;BME280;32338;50.430;6.806;2022-12-13T12:10:56;65225.88;;;-1.78;100.00
46614;BME280;32338;50.430;6.806;2022-12-13T12:13:29;65219.19;;;-1.85;100.00
46614;BME280;32338;50.430;6.806;2022-12-13T12:16:05;65229.56;;;-1.77;100.00
46614;BME280;32338;50.430;6.806;2022-12-13T12:18:33;65241.25;;;-1.67;100.00
46614;BME280;32338;50.430;6.806;2022-12-13T12:21:15;65285.28;;;-1.26;100.00
46614;BME280;32338;50.430;6.806;2022-12-13T12:23:55;65276.34;;;-1.34;100.00
46614;BME280;32338;50.430;6.806;2022-12-13T12:26:31;65295.66;;;-1.19;100.00
46614;BME280;32338;50.430;6.806;2022-12-13T12:29:16;65300.53;;;-1.09;97.56
46614;BME280;32338;50.430;6.806;2022-12-13T12:31:53;65298.44;;;-1.16;95.69
46614;BME280;32338;50.430;6.806;2022-12-13T12:34:33;65280.25;;;-1.31;94.60
46614;BME280;32338;50.430;6.806;2022-12-13T12:37:12;65303.19;;;-1.02;94.55
46614;BME280;32338;50.430;6.806;2022-12-13T12:39:54;65309.81;;;-1.03;97.52
46614;BME280;32338;50.430;6.806;2022-12-13T12:42:45;65273.03;;;-1.37;87.54
46614;BME280;32338;50.430;6.806;2022-12-13T12:45:28;65314.03;;;-1.02;100.00
46614;BME280;32338;50.430;6.806;2022-12-13T12:48:06;65311.13;;;-1.00;100.00
46614;BME280;32338;50.430;6.806;2022-12-13T12:50:40;65316.16;;;-0.95;96.05
46614;BME280;32338;50.430;6.806;2022-12-13T12:53:27;65335.44;;;-0.79;91.00
46614;BME280;32338;50.430;6.806;2022-12-13T12:56:06;65302.00;;;-1.10;91.18
46614;BME280;32338;50.430;6.806;2022-12-13T12:58:44;65259.84;;;-1.47;83.70
46614;BME280;32338;50.430;6.806;2022-12-13T13:01:24;65276.34;;;-1.34;84.89
46614;BME280;32338;50.430;6.806;2022-12-13T13:03:55;65295.88;;;-1.16;82.33
46614;BME280;32338;50.430;6.806;2022-12-13T13:06:27;65317.81;;;-0.93;79.68
46614;BME280;32338;50.430;6.806;2022-12-13T13:09:00;65293.63;;;-1.18;80.36